Time;durP1;ratioP1;P1;durP2;ratioP2;P2;SDS_P1;SDS_P2;PMS_P1;PMS_P2;Temp;Humidity;BMP_temperature;BMP_pressure;BME280_temperature;BME280_humidity;BME280_pressure;Samples;Min_cycle;Max_cycle;Signal;HPM_P1;HPM_P2
2021/10/17 00:00:17;;;;;;;95.70;50.83;;;;;;;4.48;100.00;99609.28;2079682;28;20239;-78
2021/10/17 00:01:18;;;;;;;86.13;50.40;;;;;;;4.44;100.00;99607.41;2080457;28;20234;-77
2021/10/17 00:02:20;;;;;;;88.87;49.27;;;;;;;4.46;100.00;99611.38;2078502;28;20307;-78
2021/10/17 00:03:26;;;;;;;90.55;50.08;;;;;;;4.44;100.00;99604.75;2071598;28;20709;-77
2021/10/17 00:04:28;;;;;;;108.78;51.47;;;;;;;4.44;100.00;99605.56;2062108;28;20244;-78
2021/10/17 00:05:31;;;;;;;103.93;51.15;;;;;;;4.45;100.00;99611.63;2071555;28;20634;-77
2021/10/17 00:06:33;;;;;;;96.20;50.00;;;;;;;4.45;100.00;99606.34;2079931;28;20250;-78
2021/10/17 00:07:34;;;;;;;88.05;49.95;;;;;;;4.44;100.00;99613.47;2079769;28;20223;-77
2021/10/17 00:08:37;;;;;;;98.90;51.70;;;;;;;4.42;100.00;99612.91;2079738;28;20227;-77
2021/10/17 00:09:42;;;;;;;88.20;50.20;;;;;;;4.38;100.00;99606.50;2079242;28;20229;-78
2021/10/17 00:10:44;;;;;;;91.25;50.63;;;;;;;4.39;100.00;99615.22;2071543;28;20265;-78
2021/10/17 00:11:45;;;;;;;92.13;50.78;;;;;;;4.37;100.00;99615.47;2079833;28;20219;-78
2021/10/17 00:12:47;;;;;;;84.53;50.27;;;;;;;4.36;100.00;99618.38;2079624;28;20285;-77
2021/10/17 00:13:50;;;;;;;89.00;50.42;;;;;;;4.34;100.00;99609.84;2080382;28;20231;-77
2021/10/17 00:14:51;;;;;;;89.00;50.17;;;;;;;4.36;100.00;99619.16;2079588;28;20234;-78
2021/10/17 00:15:52;;;;;;;94.60;50.05;;;;;;;4.36;100.00;99618.38;2079288;28;20258;-77
2021/10/17 00:16:54;;;;;;;91.90;50.40;;;;;;;4.35;100.00;99617.56;2079537;28;20235;-77
2021/10/17 00:17:56;;;;;;;91.03;50.58;;;;;;;4.34;100.00;99615.16;2079584;28;20238;-77
2021/10/17 00:18:58;;;;;;;92.47;49.67;;;;;;;4.31;100.00;99615.63;2079501;28;20238;-77
2021/10/17 00:19:59;;;;;;;91.50;49.30;;;;;;;4.33;100.00;99610.91;2071458;28;20682;-78
2021/10/17 00:21:00;;;;;;;85.60;49.70;;;;;;;4.32;100.00;99617.22;2071347;28;20750;-77
2021/10/17 00:22:02;;;;;;;95.63;50.83;;;;;;;4.33;100.00;99616.97;2080654;28;20235;-77
2021/10/17 00:23:04;;;;;;;98.85;52.20;;;;;;;4.32;100.00;99620.66;2081132;28;20234;-77
2021/10/17 00:24:08;;;;;;;90.53;52.15;;;;;;;4.31;100.00;99605.88;2081270;28;20230;-77
2021/10/17 00:25:10;;;;;;;90.03;51.67;;;;;;;4.29;100.00;99605.31;2081159;28;20224;-78
2021/10/17 00:26:11;;;;;;;88.38;51.53;;;;;;;4.31;100.00;99605.06;2081919;28;20289;-77
2021/10/17 00:27:13;;;;;;;86.13;49.28;;;;;;;4.31;100.00;99605.88;2081259;28;20673;-77
2021/10/17 00:28:15;;;;;;;96.13;51.47;;;;;;;4.32;100.00;99607.47;2073661;28;20231;-77
2021/10/17 00:29:21;;;;;;;92.00;50.58;;;;;;;4.34;100.00;99609.84;2073679;28;20220;-77
2021/10/17 00:30:25;;;;;;;93.60;51.90;;;;;;;4.30;100.00;99606.13;2080932;28;20243;-77
2021/10/17 00:31:27;;;;;;;94.63;52.92;;;;;;;4.31;100.00;99613.78;2089432;28;20231;-77
2021/10/17 00:32:28;;;;;;;95.03;53.40;;;;;;;4.29;100.00;99604.50;2089559;28;20298;-78
2021/10/17 00:33:30;;;;;;;90.28;51.80;;;;;;;4.31;100.00;99607.72;2081247;28;20227;-77
2021/10/17 00:34:32;;;;;;;94.30;51.90;;;;;;;4.27;100.00;99601.31;2071804;28;20659;-77
2021/10/17 00:35:33;;;;;;;97.35;53.92;;;;;;;4.25;100.00;99602.34;2065493;28;20274;-78
2021/10/17 00:36:35;;;;;;;97.63;51.92;;;;;;;4.28;100.00;99603.72;2073085;28;20299;-77
2021/10/17 00:37:36;;;;;;;103.95;54.70;;;;;;;4.27;100.00;99610.03;2072533;28;20261;-78
2021/10/17 00:38:38;;;;;;;92.72;53.95;;;;;;;4.27;100.00;99604.75;2080630;28;20230;-78
2021/10/17 00:39:40;;;;;;;96.47;53.60;;;;;;;4.25;100.00;99606.81;2080926;28;20251;-77
2021/10/17 00:40:42;;;;;;;100.53;53.70;;;;;;;4.24;100.00;99608.66;2081140;28;20739;-77
2021/10/17 00:41:43;;;;;;;97.45;52.67;;;;;;;4.23;100.00;99607.06;2081166;28;20227;-77
2021/10/17 00:42:46;;;;;;;98.43;52.60;;;;;;;4.27;100.00;99615.31;2071600;28;20252;-78
2021/10/17 00:43:48;;;;;;;108.60;55.25;;;;;;;4.31;100.00;99610.34;2073230;28;20224;-77
2021/10/17 00:44:54;;;;;;;106.32;53.35;;;;;;;4.30;100.00;99599.00;2081119;28;20235;-77
2021/10/17 00:45:56;;;;;;;92.47;52.83;;;;;;;4.25;100.00;99601.53;2081570;28;20735;-77
2021/10/17 00:46:57;;;;;;;94.55;52.63;;;;;;;4.26;100.00;99600.53;2078461;28;20783;-78
2021/10/17 00:48:00;;;;;;;99.33;51.43;;;;;;;4.23;100.00;99601.78;2089418;28;20542;-78
2021/10/17 00:49:00;;;;;;;99.97;52.53;;;;;;;4.22;100.00;99604.66;2081747;28;20219;-77
2021/10/17 00:50:03;;;;;;;87.43;51.57;;;;;;;4.20;100.00;99609.41;2080946;28;20254;-77
2021/10/17 00:51:04;;;;;;;98.95;51.85;;;;;;;4.24;100.00;99608.66;2081048;28;20223;-77
2021/10/17 00:52:06;;;;;;;95.70;53.23;;;;;;;4.24;100.00;99611.31;2068775;28;20220;-77
2021/10/17 00:53:08;;;;;;;103.00;52.40;;;;;;;4.22;100.00;99607.31;2072633;28;20232;-77
2021/10/17 00:54:11;;;;;;;97.23;53.07;;;;;;;4.19;100.00;99605.16;2073580;28;20226;-77
2021/10/17 00:55:15;;;;;;;97.47;53.33;;;;;;;4.15;100.00;99598.75;2072763;28;20224;-77
2021/10/17 00:56:16;;;;;;;103.03;52.45;;;;;;;4.14;100.00;99602.44;2072652;28;20697;-78
2021/10/17 00:57:17;;;;;;;96.20;54.35;;;;;;;4.11;100.00;99600.28;2081117;28;20643;-77
2021/10/17 00:58:20;;;;;;;96.30;53.13;;;;;;;4.08;100.00;99596.25;2072927;28;20227;-78
2021/10/17 00:59:21;;;;;;;93.75;52.95;;;;;;;4.07;100.00;99604.41;2064860;28;20268;-77
2021/10/17 01:00:23;;;;;;;95.07;52.07;;;;;;;4.06;100.00;99603.63;2066197;28;20233;-77
2021/10/17 01:01:23;;;;;;;90.18;52.53;;;;;;;4.05;100.00;99601.22;2071058;28;20478;-77
2021/10/17 01:02:25;;;;;;;96.17;53.83;;;;;;;4.05;100.00;99611.78;2072840;28;20248;-77
2021/10/17 01:03:26;;;;;;;95.97;52.60;;;;;;;4.04;100.00;99612.84;2073439;28;20622;-78
2021/10/17 01:04:28;;;;;;;93.67;51.93;;;;;;;3.99;100.00;99592.41;2073519;28;20231;-77
2021/10/17 01:05:29;;;;;;;101.72;53.88;;;;;;;4.02;100.00;99604.34;2073535;28;20224;-77
2021/10/17 01:06:31;;;;;;;96.78;51.42;;;;;;;4.00;100.00;99598.50;2080938;28;20242;-77
2021/10/17 01:07:32;;;;;;;89.32;50.17;;;;;;;3.98;100.00;99596.91;2080895;28;20817;-77
2021/10/17 01:08:34;;;;;;;87.90;50.53;;;;;;;4.00;100.00;99601.13;2080879;28;20607;-78
2021/10/17 01:09:35;;;;;;;88.88;49.80;;;;;;;3.97;100.00;99592.66;2080376;28;20227;-78
2021/10/17 01:10:40;;;;;;;96.28;51.15;;;;;;;3.98;100.00;99596.09;2072253;28;20228;-77
2021/10/17 01:11:43;;;;;;;89.97;50.88;;;;;;;3.93;100.00;99596.84;2072763;28;20244;-77
2021/10/17 01:12:51;;;;;;;89.93;49.42;;;;;;;3.93;100.00;99593.41;2072275;28;20669;-78
2021/10/17 01:13:54;;;;;;;87.55;50.63;;;;;;;3.92;100.00;99595.22;2066752;28;20225;-78
2021/10/17 01:14:55;;;;;;;90.57;50.80;;;;;;;3.92;100.00;99595.22;2064709;28;20315;-77
2021/10/17 01:15:58;;;;;;;88.57;48.73;;;;;;;3.90;100.00;99602.56;2072654;28;20722;-77
2021/10/17 01:17:10;;;;;;;96.38;50.65;;;;;;;3.88;100.00;99591.47;2065690;28;20232;-77
2021/10/17 01:18:10;;;;;;;90.13;50.53;;;;;;;3.91;100.00;99601.56;2079225;28;20332;-77
2021/10/17 01:19:17;;;;;;;90.57;50.25;;;;;;;3.90;100.00;99599.94;2072886;28;20347;-77
2021/10/17 01:20:21;;;;;;;90.70;49.97;;;;;;;3.87;100.00;99597.78;2073409;28;20231;-77
2021/10/17 01:21:23;;;;;;;91.05;49.90;;;;;;;3.88;100.00;99599.38;2076368;28;20306;-76
2021/10/17 01:22:26;;;;;;;98.03;51.38;;;;;;;3.89;100.00;99600.16;2080701;28;20230;-77
2021/10/17 01:23:31;;;;;;;89.40;51.20;;;;;;;3.89;100.00;99593.06;2080588;28;20697;-78
2021/10/17 01:24:32;;;;;;;97.97;51.55;;;;;;;3.87;100.00;99592.50;2080782;28;20224;-77
2021/10/17 01:25:34;;;;;;;84.13;50.03;;;;;;;3.91;100.00;99593.63;2072884;28;20224;-77
2021/10/17 01:26:35;;;;;;;85.93;49.95;;;;;;;3.89;100.00;99589.63;2072646;28;20729;-78
2021/10/17 01:27:41;;;;;;;89.18;51.85;;;;;;;3.91;100.00;99591.00;2080434;28;20227;-77
2021/10/17 01:28:42;;;;;;;84.55;50.70;;;;;;;3.89;100.00;99595.69;2072256;28;20291;-77
2021/10/17 01:29:43;;;;;;;86.67;49.80;;;;;;;3.88;100.00;99588.81;2077508;28;20223;-77
2021/10/17 01:30:44;;;;;;;96.13;49.70;;;;;;;3.88;100.00;99588.81;2080767;28;20227;-78
2021/10/17 01:31:51;;;;;;;87.65;47.30;;;;;;;3.87;100.00;99587.22;2080874;28;20315;-78
2021/10/17 01:32:51;;;;;;;88.95;51.20;;;;;;;3.87;100.00;99584.56;2080068;28;20305;-77
2021/10/17 01:33:53;;;;;;;83.90;48.93;;;;;;;3.88;100.00;99590.66;2072206;28;20236;-76
2021/10/17 01:34:54;;;;;;;84.93;49.25;;;;;;;3.90;100.00;99596.50;2080714;28;20231;-77
2021/10/17 01:35:57;;;;;;;100.00;50.97;;;;;;;3.88;100.00;99591.47;2080976;28;20235;-77
2021/10/17 01:36:58;;;;;;;93.60;48.70;;;;;;;3.91;100.00;99596.28;2072612;28;20262;-78
2021/10/17 01:38:00;;;;;;;90.97;49.90;;;;;;;3.91;100.00;99596.28;2072609;28;20247;-77
2021/10/17 01:39:01;;;;;;;95.30;49.25;;;;;;;3.91;100.00;99593.63;2072579;28;20219;-77
2021/10/17 01:40:05;;;;;;;81.95;48.42;;;;;;;3.93;100.00;99596.84;2072411;28;20706;-77
2021/10/17 01:41:08;;;;;;;90.70;50.13;;;;;;;3.92;100.00;99594.44;2072771;28;20251;-77
2021/10/17 01:42:10;;;;;;;85.93;48.97;;;;;;;3.94;100.00;99595.78;2072418;28;20224;-78
2021/10/17 01:43:16;;;;;;;96.65;50.40;;;;;;;3.91;100.00;99588.34;2073042;28;20228;-78
2021/10/17 01:44:44;;;;;;;89.47;48.63;;;;;;;3.95;100.00;99599.22;2078142;28;20222;-78
2021/10/17 01:45:45;;;;;;;81.32;49.15;;;;;;;3.95;100.00;99593.94;2080591;28;20713;-77
2021/10/17 01:46:47;;;;;;;92.43;50.00;;;;;;;3.94;100.00;99595.00;2072348;28;20679;-77
2021/10/17 01:47:50;;;;;;;83.45;47.20;;;;;;;3.97;100.00;99594.50;2080767;28;20230;-77
2021/10/17 01:48:54;;;;;;;86.05;47.45;;;;;;;4.03;100.00;99592.75;2080085;28;20235;-77
2021/10/17 01:49:55;;;;;;;81.65;47.08;;;;;;;4.01;100.00;99589.56;2080634;28;20235;-77
2021/10/17 01:50:59;;;;;;;78.07;46.27;;;;;;;4.00;100.00;99590.56;2080816;28;21810;-77
2021/10/17 01:52:00;;;;;;;80.38;47.40;;;;;;;3.98;100.00;99585.53;2072590;28;20232;-77
2021/10/17 01:53:02;;;;;;;87.68;48.35;;;;;;;4.00;100.00;99585.28;2080672;28;20303;-78
2021/10/17 01:54:06;;;;;;;79.25;45.47;;;;;;;3.98;100.00;99581.06;2080608;28;20280;-77
2021/10/17 01:55:10;;;;;;;88.13;47.83;;;;;;;3.97;100.00;99578.66;2072369;28;20224;-77
2021/10/17 01:56:11;;;;;;;85.65;48.00;;;;;;;4.01;100.00;99585.06;2072661;28;20737;-77
2021/10/17 01:57:12;;;;;;;79.83;46.53;;;;;;;4.03;100.00;99588.28;2080527;28;20644;-77
2021/10/17 01:58:13;;;;;;;72.63;46.17;;;;;;;4.02;100.00;99591.97;2080512;28;20227;-76
2021/10/17 01:59:15;;;;;;;75.73;44.30;;;;;;;4.04;100.00;99589.06;2088680;28;20302;-78
2021/10/17 02:00:25;;;;;;;81.60;45.28;;;;;;;4.03;100.00;99587.47;2079788;28;20231;-77
2021/10/17 02:01:26;;;;;;;75.65;45.13;;;;;;;3.98;100.00;99583.69;2080510;28;20227;-77
2021/10/17 02:02:30;;;;;;;74.10;44.33;;;;;;;4.02;100.00;99591.16;2080634;28;20231;-78
2021/10/17 02:03:32;;;;;;;75.13;44.08;;;;;;;4.00;100.00;99586.13;2080429;28;20227;-78
2021/10/17 02:04:35;;;;;;;70.97;43.60;;;;;;;3.98;100.00;99585.53;2072543;28;20250;-77
2021/10/17 02:05:36;;;;;;;72.70;44.58;;;;;;;3.97;100.00;99584.75;2080542;28;20250;-77
2021/10/17 02:06:39;;;;;;;74.23;44.80;;;;;;;4.04;100.00;99589.06;2072004;28;20243;-77
2021/10/17 02:07:41;;;;;;;75.53;44.10;;;;;;;4.01;100.00;99582.44;2072125;28;20374;-78
2021/10/17 02:08:45;;;;;;;87.07;44.60;;;;;;;4.02;100.00;99580.59;2064548;28;20227;-77
2021/10/17 02:09:47;;;;;;;78.82;45.42;;;;;;;4.01;100.00;99579.00;2072318;28;20240;-77
2021/10/17 02:10:48;;;;;;;73.53;44.17;;;;;;;3.99;100.00;99573.94;2064238;28;20232;-77
2021/10/17 02:11:51;;;;;;;68.27;42.10;;;;;;;4.00;100.00;99578.22;2072310;28;20228;-77
2021/10/17 02:12:51;;;;;;;80.10;44.10;;;;;;;4.01;100.00;99571.88;2080023;28;20254;-77
2021/10/17 02:13:53;;;;;;;73.93;43.60;;;;;;;4.02;100.00;99577.97;2079994;28;20309;-77
2021/10/17 02:14:54;;;;;;;66.90;43.58;;;;;;;4.01;100.00;99568.44;2072214;28;20224;-76
2021/10/17 02:15:59;;;;;;;81.82;44.03;;;;;;;4.01;100.00;99574.53;2064464;28;20228;-77
2021/10/17 02:17:01;;;;;;;76.22;44.47;;;;;;;4.00;100.00;99578.22;2072170;28;20232;-77
2021/10/17 02:18:03;;;;;;;77.93;42.43;;;;;;;4.01;100.00;99568.44;2071789;28;20220;-78
2021/10/17 02:19:13;;;;;;;70.82;42.83;;;;;;;4.01;100.00;99579.00;2066967;28;20498;-77
2021/10/17 02:20:14;;;;;;;78.68;43.20;;;;;;;4.00;100.00;99574.72;2072122;28;20314;-77
2021/10/17 02:21:16;;;;;;;70.07;41.78;;;;;;;4.02;100.00;99575.31;2072265;28;20274;-77
2021/10/17 02:22:21;;;;;;;69.55;42.78;;;;;;;4.05;100.00;99585.38;2072250;28;20220;-77
2021/10/17 02:23:25;;;;;;;70.88;42.47;;;;;;;4.05;100.00;99583.53;2079514;28;20236;-77
2021/10/17 02:24:28;;;;;;;73.20;42.90;;;;;;;4.04;100.00;99578.50;2072064;28;20695;-77
2021/10/17 02:25:31;;;;;;;77.55;43.40;;;;;;;4.03;100.00;99583.00;2064221;28;20239;-77
2021/10/17 02:26:32;;;;;;;75.60;42.80;;;;;;;4.03;100.00;99574.28;2064210;28;20309;-77
2021/10/17 02:27:49;;;;;;;76.15;44.45;;;;;;;4.03;100.00;99577.72;2072180;28;20227;-78
2021/10/17 02:28:51;;;;;;;66.00;42.50;;;;;;;4.02;100.00;99570.84;2071866;28;20236;-77
2021/10/17 02:29:52;;;;;;;72.45;43.33;;;;;;;4.02;100.00;99576.13;2070166;28;20576;-77
2021/10/17 02:30:59;;;;;;;67.80;41.97;;;;;;;4.01;100.00;99569.25;2064396;28;20699;-77
2021/10/17 02:32:04;;;;;;;67.32;42.50;;;;;;;4.04;100.00;99573.22;2072654;28;20658;-77
2021/10/17 02:33:06;;;;;;;71.53;43.47;;;;;;;4.02;100.00;99565.56;2072148;28;20224;-78
2021/10/17 02:34:08;;;;;;;75.40;43.42;;;;;;;4.03;100.00;99574.28;2067646;28;20303;-77
2021/10/17 02:35:09;;;;;;;67.60;43.38;;;;;;;4.01;100.00;99566.59;2073853;28;20641;-77
2021/10/17 02:36:13;;;;;;;79.63;41.53;;;;;;;4.02;100.00;99564.75;2080246;28;20223;-78
2021/10/17 02:37:15;;;;;;;64.25;42.30;;;;;;;4.02;100.00;99570.03;2072005;28;20945;-77
2021/10/17 02:38:19;;;;;;;75.30;41.63;;;;;;;4.00;100.00;99565.00;2063989;28;20229;-78
2021/10/17 02:39:21;;;;;;;67.55;41.65;;;;;;;3.98;100.00;99559.94;2072094;28;20282;-77
2021/10/17 02:40:22;;;;;;;70.38;42.10;;;;;;;4.00;100.00;99564.19;2087967;28;20231;-77
2021/10/17 02:41:24;;;;;;;70.17;42.53;;;;;;;3.99;100.00;99566.03;2080089;28;20223;-77
2021/10/17 02:42:25;;;;;;;70.05;42.60;;;;;;;3.94;100.00;99548.28;2072367;28;20235;-77
2021/10/17 02:43:27;;;;;;;72.33;43.67;;;;;;;4.00;100.00;99561.53;2071938;28;20737;-77
2021/10/17 02:44:31;;;;;;;68.85;41.90;;;;;;;3.98;100.00;99559.94;2071258;28;20228;-77
2021/10/17 02:45:33;;;;;;;69.28;41.47;;;;;;;3.97;100.00;99553.06;2064131;28;20715;-77
2021/10/17 02:46:34;;;;;;;68.97;42.42;;;;;;;3.95;100.00;99551.72;2063882;28;20336;-77
2021/10/17 02:47:35;;;;;;;69.07;42.70;;;;;;;3.96;100.00;99555.94;2071781;28;20231;-77
2021/10/17 02:48:38;;;;;;;72.53;42.65;;;;;;;3.96;100.00;99555.94;2063687;28;20235;-78
2021/10/17 02:49:43;;;;;;;63.25;41.10;;;;;;;3.94;100.00;99552.75;2063906;28;20311;-77
2021/10/17 02:50:46;;;;;;;68.57;41.75;;;;;;;3.92;100.00;99553.00;2064624;28;20325;-77
2021/10/17 02:51:48;;;;;;;68.88;41.50;;;;;;;3.86;100.00;99546.03;2071599;28;20239;-77
2021/10/17 02:52:49;;;;;;;70.30;41.13;;;;;;;3.87;100.00;99550.25;2080247;28;20701;-77
2021/10/17 02:53:54;;;;;;;67.38;42.40;;;;;;;3.84;100.00;99547.31;2073190;28;20224;-77
2021/10/17 02:54:55;;;;;;;68.32;41.28;;;;;;;3.86;100.00;99553.16;2071958;28;20232;-77
2021/10/17 02:55:56;;;;;;;70.30;41.83;;;;;;;3.84;100.00;99556.03;2080047;28;20231;-77
2021/10/17 02:56:58;;;;;;;71.57;41.67;;;;;;;3.81;100.00;99548.56;2071880;28;20231;-77
2021/10/17 02:58:01;;;;;;;75.28;42.03;;;;;;;3.81;100.00;99545.13;2071853;28;20749;-77
2021/10/17 02:59:03;;;;;;;71.47;42.88;;;;;;;3.84;100.00;99556.03;2064034;28;20228;-78
2021/10/17 03:00:06;;;;;;;71.25;41.38;;;;;;;3.80;100.00;99552.25;2071937;28;20307;-77
2021/10/17 03:01:07;;;;;;;72.65;41.60;;;;;;;3.77;100.00;99547.47;2079709;28;20262;-77
2021/10/17 03:02:11;;;;;;;71.47;43.28;;;;;;;3.74;100.00;99541.88;2078524;28;20654;-75
2021/10/17 03:03:12;;;;;;;77.68;44.20;;;;;;;3.73;100.00;99546.34;2080107;28;20223;-77
2021/10/17 03:04:19;;;;;;;66.45;41.20;;;;;;;3.72;100.00;99549.22;2072227;28;20224;-78
2021/10/17 03:05:27;;;;;;;67.47;41.85;;;;;;;3.72;100.00;99555.28;2065677;28;20754;-77
2021/10/17 03:06:29;;;;;;;73.53;43.28;;;;;;;3.72;100.00;99559.78;2071918;28;20644;-77
2021/10/17 03:07:30;;;;;;;69.65;43.38;;;;;;;3.72;100.00;99550.00;2071812;28;20224;-77
2021/10/17 03:08:39;;;;;;;75.80;43.47;;;;;;;3.73;100.00;99553.44;2076670;28;20219;-77
2021/10/17 03:09:41;;;;;;;78.85;43.30;;;;;;;3.77;100.00;99557.22;2079872;28;20238;-77
2021/10/17 03:10:43;;;;;;;72.07;42.97;;;;;;;3.79;100.00;99555.94;2080048;28;20238;-77
2021/10/17 03:11:45;;;;;;;73.53;44.55;;;;;;;3.74;100.00;99547.97;2072691;28;20219;-77
2021/10/17 03:12:47;;;;;;;78.20;43.60;;;;;;;3.73;100.00;99556.88;2071990;28;20319;-77
2021/10/17 03:13:53;;;;;;;70.65;43.20;;;;;;;3.69;100.00;99550.50;2087771;28;20230;-77
2021/10/17 03:15:02;;;;;;;76.25;44.38;;;;;;;3.66;100.00;99551.00;2078720;28;20381;-77
2021/10/17 03:16:04;;;;;;;69.13;43.15;;;;;;;3.65;100.00;99555.47;2080133;28;20729;-77
2021/10/17 03:17:06;;;;;;;70.20;42.13;;;;;;;3.62;100.00;99555.13;2088177;28;20277;-77
2021/10/17 03:18:09;;;;;;;70.63;43.58;;;;;;;3.61;100.00;99556.97;2071212;28;20702;-77
2021/10/17 03:19:13;;;;;;;74.93;42.75;;;;;;;3.57;100.00;99552.41;2071759;28;20223;-77
2021/10/17 03:20:15;;;;;;;73.57;43.40;;;;;;;3.54;100.00;99547.59;2071687;28;20600;-77
2021/10/17 03:21:19;;;;;;;71.90;41.85;;;;;;;3.53;100.00;99554.72;2064167;28;20233;-78
2021/10/17 03:22:21;;;;;;;65.20;42.40;;;;;;;3.51;100.00;99550.72;2063614;28;20676;-78
2021/10/17 03:23:22;;;;;;;72.25;42.55;;;;;;;3.47;100.00;99552.22;2063158;28;20235;-77
2021/10/17 03:24:24;;;;;;;68.23;42.37;;;;;;;3.47;100.00;99552.22;2063564;28;20231;-77
2021/10/17 03:25:28;;;;;;;70.97;42.55;;;;;;;3.43;100.00;99551.09;2063539;28;20621;-77
2021/10/17 03:26:29;;;;;;;68.28;42.03;;;;;;;3.42;100.00;99554.78;2075886;28;20223;-77
2021/10/17 03:27:30;;;;;;;71.75;42.17;;;;;;;3.36;100.00;99544.13;2071642;28;20621;-77
2021/10/17 03:28:32;;;;;;;73.53;40.67;;;;;;;3.34;100.00;99550.69;2063572;28;20224;-77
2021/10/17 03:29:32;;;;;;;76.80;43.28;;;;;;;3.32;100.00;99556.19;2071701;28;20298;-77
2021/10/17 03:30:37;;;;;;;73.55;42.65;;;;;;;3.33;100.00;99546.44;2079797;28;20701;-77
2021/10/17 03:31:43;;;;;;;66.97;42.05;;;;;;;3.30;100.00;99547.72;2086297;28;20304;-77
2021/10/17 03:32:47;;;;;;;61.05;40.72;;;;;;;3.29;100.00;99554.00;2079711;28;20235;-78
2021/10/17 03:33:48;;;;;;;71.13;41.78;;;;;;;3.25;100.00;99547.63;2071501;28;20259;-77
2021/10/17 03:34:53;;;;;;;67.03;40.35;;;;;;;3.25;100.00;99549.47;2063380;28;20233;-77
2021/10/17 03:35:53;;;;;;;59.10;38.75;;;;;;;3.23;100.00;99546.25;2063526;28;20650;-77
2021/10/17 03:36:57;;;;;;;67.07;40.22;;;;;;;3.20;100.00;99546.72;2071748;28;20251;-77
2021/10/17 03:37:57;;;;;;;63.38;39.38;;;;;;;3.20;100.00;99546.72;2079818;28;20219;-77
2021/10/17 03:39:02;;;;;;;70.60;41.23;;;;;;;3.17;100.00;99545.34;2071604;28;20224;-77
2021/10/17 03:40:07;;;;;;;60.72;39.85;;;;;;;3.15;100.00;99546.63;2072110;28;20232;-78
2021/10/17 03:41:13;;;;;;;61.95;39.80;;;;;;;3.10;100.00;99544.69;2078983;28;20223;-77
2021/10/17 03:42:19;;;;;;;58.60;37.20;;;;;;;3.10;100.00;99539.41;2072604;28;20644;-77
2021/10/17 03:43:20;;;;;;;57.50;37.00;;;;;;;3.08;100.00;99549.41;2071809;28;20220;-78
2021/10/17 03:44:27;;;;;;;56.80;36.22;;;;;;;3.08;100.00;99546.78;2080149;28;20235;-77
2021/10/17 03:45:34;;;;;;;61.67;37.97;;;;;;;3.06;100.00;99540.94;2079696;28;20229;-77
2021/10/17 03:46:36;;;;;;;66.20;37.35;;;;;;;3.05;100.00;99542.78;2079741;28;20257;-78
2021/10/17 03:47:38;;;;;;;62.63;37.58;;;;;;;3.05;100.00;99541.97;2079492;28;20222;-77
2021/10/17 03:48:39;;;;;;;60.25;37.65;;;;;;;3.04;100.00;99543.00;2079570;28;20235;-77
2021/10/17 03:49:48;;;;;;;62.17;39.13;;;;;;;3.03;100.00;99541.38;2079576;28;20271;-77
2021/10/17 03:50:59;;;;;;;57.33;36.85;;;;;;;3.02;100.00;99545.06;2072452;28;20806;-77
2021/10/17 03:51:59;;;;;;;63.80;37.83;;;;;;;3.00;100.00;99533.97;2079647;28;20305;-77
2021/10/17 03:53:02;;;;;;;58.57;37.57;;;;;;;3.00;100.00;99541.88;2079622;28;20230;-77
2021/10/17 03:54:05;;;;;;;64.47;36.97;;;;;;;3.01;100.00;99552.16;2079711;28;20689;-78
2021/10/17 03:55:08;;;;;;;55.22;37.60;;;;;;;2.98;100.00;99544.75;2079232;28;20227;-77
2021/10/17 03:56:10;;;;;;;59.97;37.58;;;;;;;2.97;100.00;99543.16;2071398;28;20228;-77
2021/10/17 03:57:13;;;;;;;58.10;37.05;;;;;;;2.94;100.00;99538.31;2071509;28;20416;-77
2021/10/17 03:58:13;;;;;;;59.25;38.38;;;;;;;2.93;100.00;99541.19;2071526;28;20224;-77
2021/10/17 03:59:16;;;;;;;63.70;36.97;;;;;;;2.95;100.00;99544.41;2079836;28;20235;-78
2021/10/17 04:00:22;;;;;;;60.13;38.45;;;;;;;2.97;100.00;99552.88;2079546;28;20227;-77
2021/10/17 04:01:27;;;;;;;48.00;34.97;;;;;;;2.90;100.00;99539.84;2079834;28;20686;-77
2021/10/17 04:02:28;;;;;;;59.28;36.05;;;;;;;2.92;100.00;99540.41;2079542;28;20623;-77
2021/10/17 04:03:30;;;;;;;60.58;37.17;;;;;;;2.93;100.00;99536.72;2079591;28;20225;-78
2021/10/17 04:04:31;;;;;;;58.80;35.22;;;;;;;2.92;100.00;99537.75;2071526;28;20247;-77
2021/10/17 04:05:32;;;;;;;56.50;37.87;;;;;;;2.92;100.00;99542.22;2079805;28;20309;-78
2021/10/17 04:06:35;;;;;;;56.00;36.03;;;;;;;2.90;100.00;99537.19;2079608;28;20646;-77
2021/10/17 04:07:41;;;;;;;58.85;37.38;;;;;;;2.88;100.00;99534.00;2071837;28;20713;-77
2021/10/17 04:08:44;;;;;;;62.28;36.97;;;;;;;2.88;100.00;99539.28;2071435;28;20293;-77
2021/10/17 04:09:45;;;;;;;56.88;38.08;;;;;;;2.86;100.00;99543.16;2079678;28;20318;-77
2021/10/17 04:10:46;;;;;;;56.75;37.75;;;;;;;2.80;100.00;99535.16;2080528;28;20686;-77
2021/10/17 04:11:51;;;;;;;61.25;37.65;;;;;;;2.79;100.00;99536.22;2079581;28;20617;-77
2021/10/17 04:12:52;;;;;;;60.00;36.45;;;;;;;2.77;100.00;99540.88;2079576;28;20227;-77
2021/10/17 04:13:54;;;;;;;62.73;36.50;;;;;;;2.75;100.00;99540.31;2087782;28;20260;-77
2021/10/17 04:14:56;;;;;;;60.17;37.38;;;;;;;2.70;100.00;99532.34;2079335;28;20238;-77
2021/10/17 04:15:57;;;;;;;62.97;37.05;;;;;;;2.70;100.00;99534.16;2079713;28;20244;-78
2021/10/17 04:16:58;;;;;;;57.92;37.65;;;;;;;2.67;100.00;99529.34;2080343;28;20223;-77
2021/10/17 04:18:00;;;;;;;55.60;38.03;;;;;;;2.66;100.00;99535.66;2079656;28;20717;-77
2021/10/17 04:19:01;;;;;;;56.95;36.80;;;;;;;2.65;100.00;99545.41;2071423;28;20219;-77
2021/10/17 04:20:02;;;;;;;58.63;37.17;;;;;;;2.64;100.00;99537.72;2071463;28;20304;-78
2021/10/17 04:21:05;;;;;;;64.88;38.25;;;;;;;2.60;100.00;99531.31;2079686;28;20220;-78
2021/10/17 04:22:07;;;;;;;60.40;37.97;;;;;;;2.60;100.00;99531.31;2071135;28;20220;-77
2021/10/17 04:23:08;;;;;;;65.65;37.40;;;;;;;2.57;100.00;99540.47;2071976;28;20617;-77
2021/10/17 04:24:11;;;;;;;56.67;36.17;;;;;;;2.58;100.00;99539.44;2087700;28;20234;-77
2021/10/17 04:25:12;;;;;;;49.65;34.15;;;;;;;2.60;100.00;99544.47;2079508;28;20251;-77
2021/10/17 04:26:14;;;;;;;55.13;35.53;;;;;;;2.62;100.00;99547.69;2071600;28;20270;-77
2021/10/17 04:27:21;;;;;;;55.15;35.45;;;;;;;2.63;100.00;99536.94;2072151;28;20220;-77
2021/10/17 04:28:26;;;;;;;57.28;35.55;;;;;;;2.63;100.00;99539.56;2071165;28;20261;-77
2021/10/17 04:29:28;;;;;;;55.53;36.47;;;;;;;2.64;100.00;99538.53;2072027;28;20227;-77
2021/10/17 04:30:30;;;;;;;62.10;36.55;;;;;;;2.68;100.00;99544.13;2079383;28;20254;-77
2021/10/17 04:31:32;;;;;;;60.03;36.45;;;;;;;2.66;100.00;99544.34;2071734;28;20219;-77
2021/10/17 04:32:33;;;;;;;56.85;37.70;;;;;;;2.65;100.00;99550.66;2079669;28;20678;-77
2021/10/17 04:33:34;;;;;;;57.23;35.77;;;;;;;2.63;100.00;99541.41;2071806;28;20619;-77
2021/10/17 04:34:37;;;;;;;53.80;36.47;;;;;;;2.62;100.00;99540.59;2071449;28;20220;-77
2021/10/17 04:35:41;;;;;;;54.97;36.60;;;;;;;2.62;100.00;99545.06;2080913;28;20273;-77
2021/10/17 04:36:42;;;;;;;59.60;38.10;;;;;;;2.62;100.00;99552.97;2079135;28;20216;-77
2021/10/17 04:37:44;;;;;;;55.27;34.83;;;;;;;2.60;100.00;99549.75;2072130;28;20282;-77
2021/10/17 04:38:45;;;;;;;55.05;35.28;;;;;;;2.61;100.00;99549.53;2072096;28;20219;-77
2021/10/17 04:39:47;;;;;;;66.68;36.03;;;;;;;2.58;100.00;99547.34;2079271;28;20297;-77
2021/10/17 04:40:48;;;;;;;60.97;36.05;;;;;;;2.58;100.00;99549.97;2079507;28;20231;-77
2021/10/17 04:41:51;;;;;;;58.43;35.67;;;;;;;2.59;100.00;99546.31;2072195;28;20224;-77
2021/10/17 04:42:53;;;;;;;62.13;37.10;;;;;;;2.59;100.00;99550.78;2070867;28;20675;-77
2021/10/17 04:43:57;;;;;;;56.72;35.78;;;;;;;2.58;100.00;99549.97;2065627;28;20228;-77
2021/10/17 04:44:59;;;;;;;52.28;34.00;;;;;;;2.57;100.00;99553.66;2079404;28;20768;-77
2021/10/17 04:46:01;;;;;;;51.13;33.88;;;;;;;2.57;100.00;99542.31;2079440;28;20751;-77
2021/10/17 04:47:01;;;;;;;47.63;31.98;;;;;;;2.58;100.00;99544.72;2071672;28;20240;-77
2021/10/17 04:48:05;;;;;;;52.87;34.10;;;;;;;2.58;100.00;99547.34;2079460;28;20687;-77